createdAt,value
2023-05-02T00:04:02.106Z,40.62
2023-05-02T00:14:08.726Z,40.69
2023-05-02T00:24:12.374Z,41.02
2023-05-02T00:34:16.096Z,41.46
2023-05-02T00:44:19.632Z,41.63
2023-05-02T00:54:44.567Z,41.89
2023-05-02T01:04:57.142Z,42.11
2023-05-02T01:16:03.593Z,42.34
2023-05-02T01:26:50.039Z,42.50
2023-05-02T01:36:58.097Z,42.84
2023-05-02T01:48:05.193Z,43.11
2023-05-02T01:58:12.342Z,43.17
2023-05-02T02:08:16.287Z,43.30
2023-05-02T02:18:26.735Z,43.64
2023-05-02T02:28:31.104Z,43.65
2023-05-02T02:38:49.125Z,43.76
2023-05-02T02:49:12.862Z,43.73
2023-05-02T02:59:29.099Z,43.75
2023-05-02T03:10:28.188Z,43.58
2023-05-02T03:20:31.921Z,43.56
2023-05-02T03:30:40.934Z,43.39
2023-05-02T03:40:45.004Z,43.22
2023-05-02T03:50:53.199Z,42.77
2023-05-02T04:00:57.186Z,42.12
2023-05-02T04:11:04.721Z,40.80
2023-05-02T04:21:11.739Z,39.63
2023-05-02T04:31:36.288Z,39.02
2023-05-02T04:42:19.949Z,38.69
2023-05-02T04:52:44.789Z,36.74
2023-05-02T05:02:48.752Z,34.91
2023-05-02T05:12:53.784Z,33.65
2023-05-02T05:23:59.325Z,33.88
2023-05-02T05:34:05.696Z,33.64
2023-05-02T05:44:11.754Z,33.20
2023-05-02T05:54:18.724Z,33.24
2023-05-02T06:04:22.624Z,33.09
2023-05-02T06:14:28.802Z,32.90
2023-05-02T06:24:32.790Z,33.75
2023-05-02T06:34:46.135Z,33.97
2023-05-02T06:44:51.796Z,33.36
2023-05-02T06:54:57.232Z,33.50
2023-05-02T07:05:03.024Z,34.09
2023-05-02T07:15:08.974Z,33.86
2023-05-02T07:25:12.557Z,33.48
2023-05-02T07:35:16.434Z,33.18
2023-05-02T07:45:24.855Z,33.07
2023-05-02T07:55:28.969Z,33.56
2023-05-02T08:05:32.900Z,33.68
2023-05-02T08:15:39.258Z,34.52
2023-05-02T08:25:42.898Z,35.57
2023-05-02T08:35:46.568Z,34.94
2023-05-02T08:45:52.956Z,34.45
2023-05-02T08:56:16.870Z,33.46
2023-05-02T09:06:41.331Z,33.35
2023-05-02T09:16:45.316Z,33.80
2023-05-02T09:27:32.756Z,33.89
2023-05-02T09:37:36.789Z,33.76
2023-05-02T09:47:41.685Z,34.19
2023-05-02T09:57:45.452Z,34.54
2023-05-02T10:07:49.608Z,35.44
2023-05-02T10:17:57.089Z,36.11
2023-05-02T10:28:01.118Z,37.46
2023-05-02T10:38:06.956Z,39.21
2023-05-02T10:48:57.499Z,40.99
2023-05-02T10:59:30.292Z,41.16
2023-05-02T11:10:24.856Z,40.13
2023-05-02T11:20:31.843Z,39.25
2023-05-02T11:30:58.849Z,37.95
2023-05-02T11:41:04.574Z,37.12
2023-05-02T11:51:08.602Z,35.81
2023-05-02T12:01:17.398Z,34.03
2023-05-02T12:11:21.901Z,33.80
2023-05-02T12:21:35.968Z,32.30
2023-05-02T12:31:40.494Z,31.82
2023-05-02T12:42:12.119Z,31.96
2023-05-02T12:52:15.819Z,32.24
2023-05-02T13:02:19.533Z,32.51
2023-05-02T13:12:25.161Z,31.81
2023-05-02T13:22:29.867Z,31.45
2023-05-02T13:32:33.648Z,32.25
2023-05-02T13:42:37.490Z,33.01
2023-05-02T13:52:41.866Z,33.78
2023-05-02T14:02:48.696Z,35.21
2023-05-02T14:13:12.223Z,41.40
2023-05-02T14:23:36.229Z,44.72
2023-05-02T14:33:39.958Z,47.19
2023-05-02T14:43:43.555Z,49.37
2023-05-02T14:53:50.932Z,52.22
2023-05-02T15:14:03.159Z,52.69
2023-05-02T15:24:07.785Z,52.43
2023-05-02T15:34:11.902Z,53.38
2023-05-02T15:44:15.828Z,53.60
2023-05-02T15:54:41.323Z,52.89
2023-05-02T16:04:45.352Z,53.04
2023-05-02T16:14:49.107Z,52.84
2023-05-02T16:24:52.907Z,52.62
2023-05-02T16:34:56.785Z,54.19
2023-05-02T16:45:02.801Z,53.28
2023-05-02T16:55:06.868Z,53.24
2023-05-02T17:05:11.480Z,53.64
2023-05-02T17:15:16.329Z,53.48
2023-05-02T17:25:20.929Z,53.16
2023-05-02T17:35:24.833Z,52.86
2023-05-02T17:45:31.419Z,52.65
2023-05-02T17:55:39.194Z,52.26
2023-05-02T18:05:44.943Z,52.04
2023-05-02T18:15:59.963Z,51.60
2023-05-02T18:26:04.357Z,50.89
2023-05-02T18:36:10.294Z,50.68
2023-05-02T18:46:14.114Z,50.75
2023-05-02T18:56:21.728Z,50.36
2023-05-02T19:06:26.408Z,50.40
2023-05-02T19:16:31.784Z,50.37
2023-05-02T19:26:56.119Z,50.38
2023-05-02T19:36:59.780Z,51.04
2023-05-02T19:47:04.129Z,50.79
2023-05-02T19:57:09.324Z,51.30
2023-05-02T20:07:13.182Z,51.62
2023-05-02T20:17:18.448Z,52.85
2023-05-02T20:28:04.373Z,53.71
2023-05-02T20:38:12.275Z,54.50
2023-05-02T20:48:18.515Z,55.24
2023-05-02T20:58:25.006Z,56.63
2023-05-02T21:08:28.696Z,57.68
2023-05-02T21:18:42.031Z,58.10
2023-05-02T21:29:26.194Z,59.05
2023-05-02T21:40:12.509Z,59.72
2023-05-02T21:50:17.995Z,60.75
2023-05-02T22:00:21.815Z,61.59
2023-05-02T22:10:25.649Z,62.31
2023-05-02T22:20:29.323Z,62.91
2023-05-02T22:30:35.139Z,63.22
2023-05-02T22:41:38.860Z,63.94
2023-05-02T22:51:47.130Z,64.13
2023-05-02T23:01:51.076Z,64.54
2023-05-02T23:11:59.826Z,64.69
2023-05-02T23:22:03.685Z,63.57
2023-05-02T23:33:08.159Z,62.34
2023-05-02T23:44:12.596Z,61.64
2023-05-02T23:54:38.362Z,61.62
